Time;durP1;ratioP1;P1;durP2;ratioP2;P2;SDS_P1;SDS_P2;PMS_P1;PMS_P2;Temp;Humidity;BMP_temperature;BMP_pressure;BME280_temperature;BME280_humidity;BME280_pressure;Samples;Min_cycle;Max_cycle;Signal;HPM_P1;HPM_P2
2022/05/24 00:01:26;;;;;;;;;2.00;2.00;;;;;16.48;69.33;100246.69;5074332;28;45405;-50
2022/05/24 00:03:52;;;;;;;;;2.00;2.00;;;;;16.47;69.11;100251.19;5070802;28;45887;-47
2022/05/24 00:06:18;;;;;;;;;4.00;3.00;;;;;16.46;69.00;100259.31;5071626;28;45257;-47
2022/05/24 00:08:44;;;;;;;;;2.25;2.00;;;;;16.43;69.16;100255.13;5070364;27;45227;-49
2022/05/24 00:11:10;;;;;;;;;3.50;2.75;;;;;16.43;69.20;100255.13;5067465;28;45285;-51
2022/05/24 00:13:36;;;;;;;;;4.00;2.00;;;;;16.43;69.05;100259.56;5068211;28;46003;-49
2022/05/24 00:16:02;;;;;;;;;4.75;2.00;;;;;16.39;68.69;100266.16;5069227;28;45606;-51
2022/05/24 00:18:30;;;;;;;;;1.00;1.00;;;;;16.34;68.49;100279.00;5068252;28;45310;-51
2022/05/24 00:20:58;;;;;;;;;4.25;3.75;;;;;16.30;68.81;100283.78;5069488;28;45457;-52
2022/05/24 00:23:26;;;;;;;;;3.75;3.00;;;;;16.27;68.35;100297.31;5069316;28;45359;-50
2022/05/24 00:25:55;;;;;;;;;3.00;3.00;;;;;16.25;68.11;100304.59;5069111;28;45513;-47
2022/05/24 00:28:24;;;;;;;;;2.25;2.00;;;;;16.21;68.19;100308.53;5069288;28;45505;-53
2022/05/24 00:30:51;;;;;;;;;1.25;1.25;;;;;16.21;68.17;100308.53;5068432;28;45489;-52
2022/05/24 00:33:18;;;;;;;;;2.25;2.25;;;;;16.18;67.44;100306.13;5069671;28;45445;-50
2022/05/24 00:35:44;;;;;;;;;2.00;2.00;;;;;16.19;67.62;100299.84;5069796;28;45380;-46
2022/05/24 00:38:20;;;;;;;;;3.00;3.00;;;;;16.18;67.73;100293.69;5068625;28;45433;-51
2022/05/24 00:40:46;;;;;;;;;1.00;1.00;;;;;16.20;67.40;100304.19;5070734;27;45379;-51
2022/05/24 00:43:41;;;;;;;;;2.00;2.00;;;;;16.17;66.44;100293.81;5070750;28;45471;-49
2022/05/24 00:46:13;;;;;;;;;2.75;2.00;;;;;16.13;66.85;100272.00;5050657;28;45154;-51
2022/05/24 00:49:08;;;;;;;;;4.50;2.00;;;;;16.09;66.81;100265.28;5071405;28;45407;-47
2022/05/24 00:51:39;;;;;;;;;1.00;1.00;;;;;16.05;66.35;100281.66;5069650;28;45263;-48
2022/05/24 00:54:05;;;;;;;;;3.50;3.00;;;;;16.00;66.30;100273.25;5069828;28;45334;-51
2022/05/24 00:56:56;;;;;;;;;3.00;1.00;;;;;15.94;66.44;100276.44;5068862;28;45200;-48
2022/05/24 00:59:48;;;;;;;;;2.00;1.75;;;;;15.88;66.67;100280.50;5068025;28;46351;-48
2022/05/24 01:02:13;;;;;;;;;3.00;1.00;;;;;15.87;66.47;100278.78;5068712;28;45492;-51
2022/05/24 01:04:39;;;;;;;;;1.50;1.50;;;;;15.84;66.25;100268.47;5071400;28;45880;-49
2022/05/24 01:07:05;;;;;;;;;3.75;2.00;;;;;15.80;66.21;100267.91;5070102;28;45283;-50
2022/05/24 01:09:42;;;;;;;;;4.00;2.00;;;;;15.79;66.55;100271.50;5068607;27;45489;-54
2022/05/24 01:12:22;;;;;;;;;4.25;2.25;;;;;15.79;66.44;100279.47;5065549;28;45679;-51
2022/05/24 01:14:49;;;;;;;;;2.00;1.00;;;;;15.81;66.43;100282.84;5068354;28;45489;-51
2022/05/24 01:17:14;;;;;;;;;3.75;2.00;;;;;15.78;66.39;100291.06;5069531;28;45407;-53
2022/05/24 01:19:46;;;;;;;;;1.25;1.00;;;;;15.73;66.33;100288.00;5070593;28;45433;-52
2022/05/24 01:22:39;;;;;;;;;3.25;2.25;;;;;15.68;66.30;100292.88;5066743;28;45462;-50
2022/05/24 01:25:16;;;;;;;;;2.00;2.00;;;;;15.65;66.31;100287.84;5073363;28;46266;-49
2022/05/24 01:27:42;;;;;;;;;1.25;1.00;;;;;15.62;66.24;100286.28;5068612;28;45504;-51
2022/05/24 01:30:09;;;;;;;;;2.00;1.00;;;;;15.62;66.38;100296.06;5066480;27;45523;-51
2022/05/24 01:38:07;;;;;;;;;2.00;2.00;;;;;15.56;66.28;100286.81;5073451;28;45251;-52
2022/05/24 01:40:34;;;;;;;;;2.00;2.00;;;;;15.58;66.37;100292.81;5070431;28;45254;-53
2022/05/24 01:42:59;;;;;;;;;2.50;2.50;;;;;15.59;66.19;100291.00;5072001;28;45245;-52
2022/05/24 01:45:33;;;;;;;;;3.25;1.00;;;;;15.58;66.10;100284.84;5070333;28;45323;-53
2022/05/24 01:48:05;;;;;;;;;3.00;1.00;;;;;15.57;66.21;100290.28;5071416;28;45224;-52
2022/05/24 01:50:35;;;;;;;;;4.00;1.00;;;;;15.56;65.76;100308.03;5070775;27;45439;-52
2022/05/24 01:53:06;;;;;;;;;3.00;1.00;;;;;15.53;65.62;100299.47;5071444;28;45443;-51
2022/05/24 01:55:34;;;;;;;;;2.75;0.75;;;;;15.51;65.63;100299.63;5069475;28;45462;-53
2022/05/24 01:58:08;;;;;;;;;1.25;1.00;;;;;15.50;65.96;100303.25;5072567;27;45281;-52
2022/05/24 02:00:34;;;;;;;;;4.00;1.50;;;;;15.52;66.09;100308.44;5070209;27;45318;-53
2022/05/24 02:02:59;;;;;;;;;1.00;1.00;;;;;15.50;65.60;100305.91;5070442;28;45639;-51
2022/05/24 02:05:36;;;;;;;;;2.00;1.25;;;;;15.50;66.07;100321.00;5070994;28;45942;-52
2022/05/24 02:08:06;;;;;;;;;1.00;1.00;;;;;15.49;65.98;100319.31;5073627;28;45437;-53
2022/05/24 02:10:39;;;;;;;;;1.75;1.00;;;;;15.49;65.23;100317.50;5070308;28;45228;-49
2022/05/24 02:13:05;;;;;;;;;2.00;1.00;;;;;15.48;65.74;100313.19;5072213;28;45414;-50
2022/05/24 02:15:35;;;;;;;;;1.00;1.00;;;;;15.47;65.92;100315.94;5070648;28;45513;-50
2022/05/24 02:18:07;;;;;;;;;2.75;1.00;;;;;15.43;66.17;100299.44;5072685;28;45339;-52
2022/05/24 02:20:42;;;;;;;;;1.00;1.00;;;;;15.38;66.41;100304.31;5069429;27;45359;-52
2022/05/24 02:23:12;;;;;;;;;1.00;0.00;;;;;15.34;66.24;100308.22;5073526;28;45525;-52
2022/05/24 02:25:57;;;;;;;;;1.00;1.00;;;;;15.28;66.19;100314.88;5070550;28;46075;-50
2022/05/24 02:28:29;;;;;;;;;1.00;1.00;;;;;15.25;67.00;100309.00;5072322;28;45286;-48
2022/05/24 02:31:04;;;;;;;;;0.75;0.75;;;;;15.24;67.27;100312.59;5070633;28;46170;-49
2022/05/24 02:33:30;;;;;;;;;0.75;0.75;;;;;15.21;66.76;100321.66;5068658;28;45438;-50
2022/05/24 02:35:56;;;;;;;;;0.00;0.00;;;;;15.20;67.09;100311.19;5068241;28;45372;-51
2022/05/24 02:38:22;;;;;;;;;1.00;1.00;;;;;15.17;66.75;100320.28;5070266;28;45798;-50
2022/05/24 02:43:33;;;;;;;;;1.00;0.00;;;;;15.10;67.30;100318.25;5069468;28;45408;-49
2022/05/24 02:45:59;;;;;;;;;1.00;1.00;;;;;15.08;67.31;100323.69;5071781;28;46149;-52
2022/05/24 02:48:24;;;;;;;;;0.75;0.75;;;;;15.05;67.31;100318.63;5068382;28;45267;-50
2022/05/24 02:50:50;;;;;;;;;1.00;1.00;;;;;15.05;67.71;100321.28;5071256;28;45333;-52
2022/05/24 02:53:15;;;;;;;;;1.50;1.50;;;;;15.05;67.16;100321.28;5072392;28;45416;-52
2022/05/24 02:55:41;;;;;;;;;2.00;0.00;;;;;15.03;67.07;100329.38;5070402;28;46017;-53
2022/05/24 02:58:07;;;;;;;;;1.00;1.00;;;;;15.05;67.36;100323.94;5069437;28;45314;-50
2022/05/24 03:00:33;;;;;;;;;2.00;2.00;;;;;15.08;67.43;100327.16;5071098;28;45314;-51
2022/05/24 03:02:58;;;;;;;;;2.00;2.00;;;;;15.08;67.08;100335.13;5070766;28;45294;-54
2022/05/24 03:05:25;;;;;;;;;1.00;1.00;;;;;15.06;66.75;100338.88;5072299;28;45276;-51
2022/05/24 03:10:35;;;;;;;;;1.00;1.00;;;;;15.06;66.90;100341.53;5068549;28;45646;-54
2022/05/24 03:15:47;;;;;;;;;0.00;0.00;;;;;15.03;66.74;100353.25;5069224;28;45482;-51
2022/05/24 03:18:15;;;;;;;;;2.00;1.00;;;;;15.02;67.30;100351.59;5071828;28;45370;-54
2022/05/24 03:20:41;;;;;;;;;3.25;1.75;;;;;15.03;67.24;100349.78;5071085;28;45458;-52
2022/05/24 03:23:08;;;;;;;;;3.00;3.00;;;;;15.02;67.38;100356.88;5072284;28;45406;-54
2022/05/24 03:25:34;;;;;;;;;1.00;1.00;;;;;15.03;67.30;100350.59;5072203;28;46313;-52
2022/05/24 03:28:01;;;;;;;;;2.25;1.00;;;;;14.98;67.18;100360.75;5069704;28;45212;-53
2022/05/24 03:30:28;;;;;;;;;1.75;1.00;;;;;14.99;67.34;100354.47;5069622;28;45310;-54
2022/05/24 03:32:54;;;;;;;;;1.50;1.00;;;;;15.01;67.28;100367.63;5072077;28;45476;-53
2022/05/24 03:35:20;;;;;;;;;2.25;0.75;;;;;15.02;66.93;100370.16;5070643;28;45673;-51
2022/05/24 03:37:45;;;;;;;;;1.00;1.00;;;;;15.02;66.94;100364.84;5070359;28;45315;-53
2022/05/24 03:40:11;;;;;;;;;1.50;1.00;;;;;15.01;67.23;100368.47;5069875;28;45279;-52
2022/05/24 03:42:38;;;;;;;;;1.00;1.00;;;;;15.00;67.11;100368.56;5071067;28;45494;-52
2022/05/24 03:45:05;;;;;;;;;3.50;1.00;;;;;14.97;67.19;100361.72;5071056;28;45425;-54
2022/05/24 03:47:31;;;;;;;;;0.50;0.50;;;;;14.93;66.63;100362.97;5066073;28;45298;-50
2022/05/24 03:49:56;;;;;;;;;1.00;1.00;;;;;14.91;67.08;100366.69;5069649;27;45444;-52
2022/05/24 03:52:22;;;;;;;;;1.00;1.00;;;;;14.90;67.15;100379.13;5069508;28;45480;-53
2022/05/24 03:54:47;;;;;;;;;1.00;0.00;;;;;14.86;66.89;100392.78;5071584;28;45659;-53
2022/05/24 03:59:57;;;;;;;;;2.00;2.00;;;;;14.84;67.31;100394.69;5071049;28;45464;-53
2022/05/24 04:02:22;;;;;;;;;0.75;0.75;;;;;14.87;67.19;100399.75;5070337;28;45714;-51
2022/05/24 04:04:48;;;;;;;;;3.75;1.00;;;;;14.88;66.99;100401.44;5067080;28;45294;-51
2022/05/24 04:07:14;;;;;;;;;1.00;1.00;;;;;14.85;67.01;100405.19;5071369;28;45525;-52
2022/05/24 04:09:40;;;;;;;;;1.00;1.00;;;;;14.86;66.94;100412.19;5072110;28;45476;-51
2022/05/24 04:12:06;;;;;;;;;1.00;1.00;;;;;14.88;66.92;100406.75;5069995;28;45382;-54
2022/05/24 04:14:33;;;;;;;;;0.75;0.75;;;;;14.88;67.01;100404.94;5066235;28;45505;-53
2022/05/24 04:16:59;;;;;;;;;0.25;0.00;;;;;14.91;66.40;100414.44;5070720;28;45425;-50
2022/05/24 04:19:25;;;;;;;;;2.00;1.00;;;;;14.85;66.48;100420.22;5071157;28;45550;-54
2022/05/24 04:21:50;;;;;;;;;1.00;1.00;;;;;14.85;66.41;100417.59;5069672;28;45421;-53
2022/05/24 04:24:16;;;;;;;;;1.75;1.00;;;;;14.87;66.62;100420.97;5069329;28;45248;-52
2022/05/24 04:26:42;;;;;;;;;3.75;0.00;;;;;14.87;66.40;100413.03;5069934;28;45245;-54
2022/05/24 04:29:08;;;;;;;;;1.75;0.00;;;;;14.88;66.53;100418.19;5072780;28;45277;-52
2022/05/24 04:31:33;;;;;;;;;0.75;0.75;;;;;14.88;66.12;100412.88;5070344;28;45318;-50
2022/05/24 04:33:59;;;;;;;;;1.00;0.00;;;;;14.87;65.94;100415.66;5069389;28;45310;-53
2022/05/24 04:36:24;;;;;;;;;1.00;0.00;;;;;14.90;65.65;100423.34;5069797;28;45378;-51
2022/05/24 04:38:50;;;;;;;;;1.00;0.00;;;;;14.91;65.72;100433.84;5068361;28;45319;-52
2022/05/24 04:43:59;;;;;;;;;2.50;2.00;;;;;14.92;65.57;100442.63;5069145;28;45809;-52
2022/05/24 04:46:25;;;;;;;;;2.00;1.00;;;;;14.91;65.68;100436.50;5069388;28;45385;-54
2022/05/24 04:48:50;;;;;;;;;0.00;0.00;;;;;14.93;65.23;100445.19;5069116;28;45322;-53
2022/05/24 04:51:16;;;;;;;;;0.25;0.25;;;;;14.89;65.28;100448.19;5069858;28;45376;-53
2022/05/24 04:53:42;;;;;;;;;1.00;1.00;;;;;14.85;65.10;100452.06;5070779;28;45518;-52
2022/05/24 04:56:07;;;;;;;;;0.00;0.00;;;;;14.83;65.63;100452.19;5069924;28;45242;-52
2022/05/24 04:58:33;;;;;;;;;0.50;0.00;;;;;14.83;65.25;100454.00;5071605;28;45469;-51
2022/05/24 05:00:58;;;;;;;;;1.00;1.00;;;;;14.79;65.51;100450.78;5072360;28;45240;-53
2022/05/24 05:03:24;;;;;;;;;2.00;1.00;;;;;14.81;64.85;100467.38;5073945;28;45918;-53
2022/05/24 05:05:51;;;;;;;;;0.00;0.00;;;;;14.77;65.04;100465.94;5073882;28;45284;-51
2022/05/24 05:08:17;;;;;;;;;1.00;1.00;;;;;14.76;65.05;100473.06;5074129;28;45306;-51
2022/05/24 05:10:43;;;;;;;;;0.75;0.75;;;;;14.76;64.63;100478.34;5072354;28;45569;-50
2022/05/24 05:13:09;;;;;;;;;1.00;0.00;;;;;14.75;64.60;100479.31;5072163;28;45261;-51
2022/05/24 05:15:37;;;;;;;;;1.00;1.00;;;;;14.72;64.92;100474.28;5072677;28;45324;-53
2022/05/24 05:18:07;;;;;;;;;0.25;0.25;;;;;14.75;64.96;100478.47;5073523;28;45422;-54
2022/05/24 05:20:38;;;;;;;;;0.50;0.00;;;;;14.78;65.54;100479.09;5069459;27;45450;-53
2022/05/24 05:23:07;;;;;;;;;1.00;1.00;;;;;14.84;64.59;100493.66;5071791;28;45478;-51
2022/05/24 05:25:33;;;;;;;;;0.00;0.00;;;;;14.90;64.26;100492.31;5069315;28;45392;-52
2022/05/24 05:27:58;;;;;;;;;0.00;0.00;;;;;14.94;64.75;100489.31;5074540;28;45339;-50
2022/05/24 05:33:08;;;;;;;;;2.25;0.50;;;;;15.05;64.50;100507.00;5053272;28;45888;-52
2022/05/24 05:35:34;;;;;;;;;3.75;1.00;;;;;15.00;64.14;100499.38;5064727;28;45510;-53
2022/05/24 05:37:59;;;;;;;;;1.00;1.00;;;;;15.02;64.50;100509.91;5072337;28;45317;-48
2022/05/24 05:40:25;;;;;;;;;2.00;1.00;;;;;15.05;63.72;100509.63;5071631;28;45443;-52
2022/05/24 05:42:50;;;;;;;;;4.00;1.00;;;;;15.02;64.12;100513.38;5073751;28;45941;-49
2022/05/24 05:45:16;;;;;;;;;2.75;2.00;;;;;15.03;64.10;100512.41;5064238;28;45243;-50
2022/05/24 05:47:41;;;;;;;;;8.50;1.00;;;;;15.10;64.17;100525.19;5063188;28;45396;-55
2022/05/24 05:50:08;;;;;;;;;4.25;1.00;;;;;15.17;63.78;100529.88;5062811;28;45189;-54
2022/05/24 05:52:34;;;;;;;;;1.00;1.00;;;;;15.23;63.09;100524.03;5063111;28;45341;-53
2022/05/24 05:54:59;;;;;;;;;1.50;1.00;;;;;15.27;63.28;100529.97;5062521;28;45354;-54
2022/05/24 05:57:25;;;;;;;;;1.50;0.00;;;;;15.28;63.18;100532.47;5063198;28;45233;-54
2022/05/24 05:59:52;;;;;;;;;2.75;0.75;;;;;15.31;63.59;100534.88;5063097;28;45589;-52
2022/05/24 06:02:17;;;;;;;;;3.25;2.25;;;;;15.34;63.06;100549.72;5062983;28;46199;-52
2022/05/24 06:04:43;;;;;;;;;2.00;1.00;;;;;15.39;62.93;100544.00;5074042;28;45349;-54
2022/05/24 06:07:09;;;;;;;;;2.25;1.25;;;;;15.41;62.83;100548.25;5069683;28;45260;-51
2022/05/24 06:09:35;;;;;;;;;5.00;2.00;;;;;15.43;62.93;100541.00;5061932;28;45416;-51
2022/05/24 06:12:00;;;;;;;;;1.00;1.00;;;;;15.51;62.34;100550.97;5062857;28;45442;-53
2022/05/24 06:14:26;;;;;;;;;2.00;2.00;;;;;15.53;62.60;100555.19;5062457;28;45359;-52
2022/05/24 06:16:52;;;;;;;;;2.00;2.00;;;;;15.59;62.39;100560.00;5062740;28;45484;-58
2022/05/24 06:19:17;;;;;;;;;4.25;3.00;;;;;15.63;62.07;100572.06;5062215;28;45481;-51
2022/05/24 06:21:43;;;;;;;;;3.50;3.50;;;;;15.67;62.27;100567.34;5062401;28;45874;-53
2022/05/24 06:24:08;;;;;;;;;2.00;0.75;;;;;15.72;61.73;100575.78;5062436;28;45243;-50
2022/05/24 06:26:34;;;;;;;;;15.75;3.50;;;;;15.78;61.98;100569.94;5062369;28;45243;-54
2022/05/24 06:29:01;;;;;;;;;3.00;1.75;;;;;15.88;61.54;100570.88;5061546;28;45390;-53
2022/05/24 06:31:27;;;;;;;;;1.00;1.00;;;;;16.00;61.05;100571.63;5061909;28;45410;-53
2022/05/24 06:33:53;;;;;;;;;1.00;1.00;;;;;16.00;61.11;100570.78;5061746;28;45415;-51
2022/05/24 06:36:20;;;;;;;;;1.00;1.00;;;;;15.93;61.02;100570.47;5062067;28;45430;-52
2022/05/24 06:38:46;;;;;;;;;3.00;0.00;;;;;15.83;61.04;100575.72;5062105;28;45319;-55
2022/05/24 06:41:11;;;;;;;;;3.25;1.50;;;;;15.81;61.36;100574.16;5061865;28;45447;-53
2022/05/24 06:43:37;;;;;;;;;3.25;1.00;;;;;15.81;61.27;100582.97;5061842;28;45401;-53
2022/05/24 06:46:10;;;;;;;;;2.75;2.00;;;;;15.85;61.10;100579.09;5062222;28;45232;-51
2022/05/24 06:48:43;;;;;;;;;3.25;1.00;;;;;15.91;61.13;100585.69;5061671;28;45264;-51
2022/05/24 06:51:15;;;;;;;;;2.00;1.00;;;;;15.94;60.72;100589.91;5061921;28;45467;-48
2022/05/24 06:53:41;;;;;;;;;1.00;1.00;;;;;15.93;60.17;100589.06;5073325;28;45434;-53
2022/05/24 06:56:08;;;;;;;;;1.75;1.00;;;;;15.86;60.33;100591.38;5066468;28;45451;-52
2022/05/24 06:58:34;;;;;;;;;3.50;2.75;;;;;15.84;60.76;100593.34;5071301;28;45422;-48
2022/05/24 07:03:45;;;;;;;;;2.50;1.00;;;;;15.83;60.88;100607.59;5070124;28;45460;-48
2022/05/24 07:06:12;;;;;;;;;2.75;1.00;;;;;15.82;60.75;100605.91;5071395;27;45257;-51
2022/05/24 07:08:39;;;;;;;;;0.75;0.75;;;;;15.80;61.10;100610.50;5071433;27;45472;-51
2022/05/24 07:11:04;;;;;;;;;1.00;1.00;;;;;15.81;60.44;100606.88;5068827;28;45631;-52
2022/05/24 07:13:30;;;;;;;;;1.00;0.75;;;;;15.86;60.32;100612.63;5069474;28;45330;-53
2022/05/24 07:15:55;;;;;;;;;0.75;0.75;;;;;15.90;60.46;100610.59;5072207;28;45564;-50
2022/05/24 07:18:21;;;;;;;;;2.00;0.00;;;;;15.98;59.53;100623.22;5072306;28;45332;-47
2022/05/24 07:20:47;;;;;;;;;1.00;1.00;;;;;16.00;59.76;100624.78;5069241;28;45546;-51
2022/05/24 07:23:17;;;;;;;;;0.50;0.50;;;;;16.03;59.71;100619.19;5071215;28;45327;-51
2022/05/24 07:25:43;;;;;;;;;0.00;0.00;;;;;16.03;60.00;100619.19;5070558;28;45184;-52
2022/05/24 07:28:11;;;;;;;;;0.25;0.25;;;;;16.06;59.58;100616.28;5072282;28;45612;-52
2022/05/24 07:30:38;;;;;;;;;1.00;1.00;;;;;16.04;59.37;100620.06;5070916;28;45437;-49
2022/05/24 07:33:04;;;;;;;;;1.75;0.50;;;;;15.98;59.13;100616.09;5071032;28;45468;-51
2022/05/24 07:35:30;;;;;;;;;2.25;0.75;;;;;16.00;58.88;100616.81;5068392;28;45444;-50
2022/05/24 07:37:55;;;;;;;;;1.25;1.25;;;;;16.09;59.14;100623.16;5070017;28;45311;-52
2022/05/24 07:45:54;;;;;;;;;1.00;0.00;;;;;16.18;57.50;100631.19;5069176;28;45321;-50
2022/05/24 07:48:20;;;;;;;;;0.00;0.00;;;;;16.19;58.03;100630.25;5069946;28;45395;-53
2022/05/24 07:50:46;;;;;;;;;2.00;1.00;;;;;16.28;57.96;100633.09;5071263;27;46353;-53
2022/05/24 07:53:12;;;;;;;;;6.00;3.00;;;;;16.41;57.53;100628.41;5069042;27;45356;-49
2022/05/24 07:55:38;;;;;;;;;1.00;1.00;;;;;16.52;57.92;100623.03;5062131;28;45395;-51
2022/05/24 07:58:04;;;;;;;;;5.00;0.50;;;;;16.62;57.09;100629.22;5048291;28;45302;-53
2022/05/24 08:00:31;;;;;;;;;2.00;1.00;;;;;16.69;56.94;100627.75;5059914;27;47699;-50
2022/05/24 08:02:56;;;;;;;;;1.25;1.25;;;;;16.77;56.56;100635.06;5070899;28;45471;-53
2022/05/24 08:05:22;;;;;;;;;0.25;0.25;;;;;16.80;56.01;100632.13;5070656;28;45299;-52
2022/05/24 08:07:54;;;;;;;;;0.00;0.00;;;;;16.83;56.03;100639.03;5068954;28;45453;-49
2022/05/24 08:10:19;;;;;;;;;2.50;1.00;;;;;16.87;56.33;100630.63;5067522;28;45604;-50
2022/05/24 08:12:46;;;;;;;;;0.00;0.00;;;;;16.94;55.64;100630.94;5069416;28;45324;-51
2022/05/24 08:15:13;;;;;;;;;2.00;1.00;;;;;16.98;55.38;100635.88;5069406;28;45423;-51
2022/05/24 08:17:38;;;;;;;;;0.75;0.00;;;;;16.98;55.77;100637.66;5069939;28;45235;-51
2022/05/24 08:20:05;;;;;;;;;1.00;1.00;;;;;17.01;55.22;100634.75;5068946;28;45786;-51
2022/05/24 08:22:31;;;;;;;;;1.50;1.50;;;;;17.00;55.22;100628.59;5068765;28;45465;-52
2022/05/24 08:24:57;;;;;;;;;1.00;0.00;;;;;17.02;55.00;100637.25;5070445;28;45575;-51
2022/05/24 08:27:22;;;;;;;;;0.50;0.50;;;;;17.01;55.02;100640.91;5070780;28;45693;-52
2022/05/24 08:29:48;;;;;;;;;2.25;1.00;;;;;17.01;54.83;100640.91;5063751;28;45621;-50
2022/05/24 08:32:13;;;;;;;;;0.50;0.50;;;;;17.03;54.12;100633.63;5058805;28;45640;-53
2022/05/24 08:34:39;;;;;;;;;2.50;0.50;;;;;17.01;54.36;100632.94;5062056;28;45387;-55
2022/05/24 08:37:06;;;;;;;;;1.25;1.00;;;;;16.99;54.68;100634.88;5063530;28;45851;-53
2022/05/24 08:39:31;;;;;;;;;1.75;0.75;;;;;16.96;54.44;100636.97;5063876;28;46408;-54
2022/05/24 08:42:13;;;;;;;;;1.00;1.00;;;;;16.95;54.85;100641.44;5063357;28;45330;-52
2022/05/24 08:50:19;;;;;;;;;2.75;0.75;;;;;17.06;54.11;100637.81;5063656;28;45347;-52
2022/05/24 08:53:04;;;;;;;;;2.50;0.25;;;;;17.12;53.91;100637.28;5063757;28;45292;-51
2022/05/24 08:55:32;;;;;;;;;2.00;0.75;;;;;17.12;53.91;100636.44;5063455;28;45370;-53
2022/05/24 08:57:59;;;;;;;;;0.00;0.00;;;;;17.17;53.63;100636.91;5063973;28;45425;-53
2022/05/24 09:00:33;;;;;;;;;2.50;0.00;;;;;17.10;53.39;100639.25;5063720;28;45318;-54
2022/05/24 09:02:59;;;;;;;;;0.00;0.00;;;;;17.13;53.20;100638.13;5063854;28;45170;-54
2022/05/24 09:05:37;;;;;;;;;1.00;1.00;;;;;17.18;53.50;100641.25;5063696;28;45190;-52
2022/05/24 09:08:10;;;;;;;;;0.00;0.00;;;;;17.20;53.03;100633.94;5063682;28;45377;-55
2022/05/24 09:11:04;;;;;;;;;2.00;1.50;;;;;17.31;52.79;100639.19;5063435;28;45350;-54
2022/05/24 09:13:33;;;;;;;;;0.75;0.75;;;;;17.43;52.38;100638.06;5052118;28;45318;-54
2022/05/24 09:16:33;;;;;;;;;2.50;1.00;;;;;17.60;52.36;100647.19;5063432;28;45342;-55
2022/05/24 09:19:06;;;;;;;;;1.00;0.00;;;;;17.66;51.28;100643.16;5059040;28;45687;-55
2022/05/24 09:21:35;;;;;;;;;0.25;0.25;;;;;17.62;51.34;100645.28;5063631;28;46152;-53
2022/05/24 09:24:28;;;;;;;;;0.75;0.75;;;;;17.68;50.71;100651.84;5062958;28;45223;-53
2022/05/24 09:27:13;;;;;;;;;0.25;0.00;;;;;17.76;51.00;100638.69;5063303;28;45306;-55
2022/05/24 09:29:52;;;;;;;;;2.75;1.00;;;;;17.87;50.59;100651.06;5063477;28;45624;-54
2022/05/24 09:32:19;;;;;;;;;2.00;0.00;;;;;17.88;50.49;100645.59;5063076;28;46176;-53
2022/05/24 09:34:44;;;;;;;;;0.25;0.25;;;;;17.91;50.02;100650.63;5063060;28;45377;-53
2022/05/24 09:37:22;;;;;;;;;0.00;0.00;;;;;17.96;49.24;100651.06;5063145;28;45466;-51
2022/05/24 09:40:05;;;;;;;;;2.25;1.00;;;;;17.89;49.24;100644.59;5063396;28;45239;-55
2022/05/24 09:42:36;;;;;;;;;2.00;0.75;;;;;17.88;49.66;100653.59;5063021;28;46336;-54
2022/05/24 09:45:37;;;;;;;;;0.25;0.00;;;;;17.92;49.50;100652.31;5061735;28;45432;-54
2022/05/24 09:48:03;;;;;;;;;0.25;0.00;;;;;17.97;49.39;100651.91;5051472;28;45434;-53
2022/05/24 09:50:33;;;;;;;;;1.75;0.75;;;;;17.96;49.18;100663.53;5062981;28;45226;-54
2022/05/24 09:53:20;;;;;;;;;2.00;0.00;;;;;17.99;49.09;100657.91;5062823;28;45347;-55
2022/05/24 09:56:17;;;;;;;;;1.00;0.00;;;;;18.08;48.36;100655.25;5062730;28;45335;-53
2022/05/24 09:59:03;;;;;;;;;4.00;2.00;;;;;18.05;49.00;100660.88;5062850;28;45279;-54
2022/05/24 10:01:40;;;;;;;;;2.00;2.00;;;;;17.99;49.31;100664.09;5062693;28;45429;-54
2022/05/24 10:04:35;;;;;;;;;1.00;0.00;;;;;17.87;48.22;100667.06;5062466;28;45228;-56
2022/05/24 10:07:02;;;;;;;;;2.25;0.25;;;;;17.75;48.96;100669.81;5061399;28;45321;-54
2022/05/24 10:09:40;;;;;;;;;3.25;1.00;;;;;17.80;49.16;100667.59;5062798;28;45366;-55
2022/05/24 10:12:21;;;;;;;;;1.75;1.75;;;;;17.96;49.44;100660.88;5063127;28;45538;-52
2022/05/24 10:15:09;;;;;;;;;0.00;0.00;;;;;18.02;48.85;100665.66;5062611;28;46086;-55
2022/05/24 10:18:12;;;;;;;;;2.00;1.00;;;;;17.97;49.02;100662.56;5062368;28;45327;-55
2022/05/24 10:20:40;;;;;;;;;1.00;1.00;;;;;17.97;49.70;100670.56;5062516;28;45324;-55
2022/05/24 10:24:11;;;;;;;;;3.00;1.50;;;;;18.14;49.68;100664.50;5062561;28;45322;-51
2022/05/24 10:26:42;;;;;;;;;0.75;0.75;;;;;18.16;48.89;100678.53;5029881;28;45372;-53
2022/05/24 10:29:42;;;;;;;;;0.00;0.00;;;;;18.09;48.69;100677.44;5039638;28;45300;-53
2022/05/24 10:38:17;;;;;;;;;1.25;0.50;;;;;17.97;48.87;100671.38;5042351;28;45446;-54
2022/05/24 10:38:19;;;;;;;;;0.00;0.00;;;;;18.02;49.36;100663.81;5062370;28;45377;-56
2022/05/24 10:41:03;;;;;;;;;1.00;1.00;;;;;18.14;49.52;100661.84;5061950;28;45358;-54
2022/05/24 10:43:47;;;;;;;;;0.00;0.00;;;;;18.14;48.11;100670.69;5062230;28;45307;-54
2022/05/24 10:46:23;;;;;;;;;16.00;13.75;;;;;18.11;47.92;100668.31;5062234;28;45348;-54
2022/05/24 10:49:14;;;;;;;;;2.25;1.00;;;;;18.05;47.68;100666.19;5061575;28;45425;-55
2022/05/24 10:52:12;;;;;;;;;0.25;0.25;;;;;18.08;47.53;100676.56;5061881;28;45251;-54
2022/05/24 10:55:19;;;;;;;;;1.00;1.00;;;;;18.20;47.23;100684.44;5042598;28;45528;-54
2022/05/24 10:58:00;;;;;;;;;3.25;0.75;;;;;18.46;46.84;100685.53;5049227;28;45483;-55
2022/05/24 11:00:46;;;;;;;;;0.00;0.00;;;;;18.64;46.14;100677.63;5061866;28;45390;-55
2022/05/24 11:03:17;;;;;;;;;0.75;0.75;;;;;18.74;46.82;100674.97;5061773;28;45195;-52
2022/05/24 11:05:44;;;;;;;;;0.25;0.25;;;;;18.70;46.09;100679.75;5062102;28;45304;-53
2022/05/24 11:08:19;;;;;;;;;2.00;1.00;;;;;18.61;46.55;100678.75;5061783;28;45240;-53
2022/05/24 11:10:48;;;;;;;;;0.00;0.00;;;;;18.55;46.43;100691.81;5061544;28;46068;-54
2022/05/24 11:13:20;;;;;;;;;4.00;3.00;;;;;18.48;45.97;100683.53;5061241;28;45331;-54
2022/05/24 11:15:56;;;;;;;;;0.25;0.25;;;;;18.46;46.39;100680.19;5061788;28;45280;-55
2022/05/24 11:18:24;;;;;;;;;0.25;0.00;;;;;18.56;46.76;100688.16;5061698;28;45412;-51
2022/05/24 11:21:06;;;;;;;;;2.00;1.00;;;;;18.73;46.52;100681.31;5061168;28;45428;-53
2022/05/24 11:23:45;;;;;;;;;2.75;1.00;;;;;18.77;46.44;100677.34;5061484;28;45404;-54
2022/05/24 11:26:21;;;;;;;;;0.00;0.00;;;;;18.76;46.64;100681.00;5061477;28;45357;-53
2022/05/24 11:28:55;;;;;;;;;1.25;0.00;;;;;18.79;46.27;100686.03;5061293;28;45431;-54
2022/05/24 11:31:31;;;;;;;;;0.00;0.00;;;;;18.82;46.01;100678.59;5061528;28;46027;-54
2022/05/24 11:34:01;;;;;;;;;2.25;0.25;;;;;18.84;45.67;100687.28;5060874;28;45369;-54
2022/05/24 11:36:48;;;;;;;;;0.00;0.00;;;;;18.82;45.09;100683.94;5061607;28;45240;-54
2022/05/24 11:39:23;;;;;;;;;0.00;0.00;;;;;18.81;44.90;100686.75;5061315;28;45330;-53
2022/05/24 11:41:49;;;;;;;;;0.00;0.00;;;;;18.86;45.10;100681.81;5061254;28;45403;-54
2022/05/24 11:44:32;;;;;;;;;0.00;0.00;;;;;18.96;44.08;100680.81;5061167;28;45410;-52
2022/05/24 11:46:58;;;;;;;;;2.00;0.00;;;;;18.96;43.62;100672.78;5061192;28;45346;-54
2022/05/24 11:49:27;;;;;;;;;2.00;0.00;;;;;18.96;43.31;100670.13;5060944;28;45530;-53
2022/05/24 11:51:55;;;;;;;;;1.00;0.00;;;;;18.94;42.86;100677.41;5061045;28;45302;-53
2022/05/24 11:54:40;;;;;;;;;0.25;0.25;;;;;18.93;43.17;100682.91;5060825;28;45279;-54
2022/05/24 11:57:06;;;;;;;;;6.00;0.25;;;;;19.00;43.81;100684.00;5061059;28;45332;-54
2022/05/24 11:59:41;;;;;;;;;2.25;1.00;;;;;19.25;42.80;100674.47;5061093;28;45298;-55
2022/05/24 12:02:26;;;;;;;;;3.75;0.25;;;;;19.45;43.60;100678.72;5061073;28;46256;-55
2022/05/24 12:08:00;;;;;;;;;0.00;0.00;;;;;19.56;45.10;100684.84;5060293;28;45355;-54
2022/05/24 12:10:39;;;;;;;;;0.25;0.00;;;;;19.55;46.27;100678.66;5060952;28;45550;-52
2022/05/24 12:13:23;;;;;;;;;0.00;0.00;;;;;19.54;46.30;100674.31;5060953;28;45457;-53
2022/05/24 12:15:59;;;;;;;;;0.00;0.00;;;;;19.66;45.45;100688.31;5060340;28;45229;-52
2022/05/24 12:18:42;;;;;;;;;1.75;0.75;;;;;19.67;45.50;100684.66;5060501;28;45346;-53
2022/05/24 12:21:08;;;;;;;;;0.00;0.00;;;;;19.74;44.88;100681.22;5060575;28;45327;-55
2022/05/24 12:23:40;;;;;;;;;1.00;0.25;;;;;19.90;45.15;100680.53;5060516;28;45331;-54